Burmah, Idaho
Current Conditions -  °F | °C
As of 8:53 PM on Saturday 24 Jan 2015 (Local Time) from KJER Reporting Station
Clear Clear  
Wind Chill: 19°   Ceiling: Unl
Heat Index: 27°   Visibility: 10mi
Dew Point: 25°   Wind: 8mph
Humidity: 92%   Direction: 30°NNE
Pressure: 30.44"   Gusts: NA
Location:  43.0455°N, 113.979°W
Report Text: KJER 250353Z AUTO 03007KT 10SM CLR M03/M04 A3044 RMK AO2 SLP346 T10281039
Loading
Personal Weather Stations






























Interactive Weather Map New forecast layout! Learn more

10-Day Weather Forecast

Advertisements
Track Severe Weather on mobile